sensor_id;sensor_type;location;lat;lon;timestamp;P1;durP1;ratioP1;P2;durP2;ratioP2
19253;SDS011;9761;50.926;5.330;2022-10-03T00:01:21;19.97;;;8.77;;
19253;SDS011;9761;50.926;5.330;2022-10-03T00:04:20;16.67;;;8.53;;
19253;SDS011;9761;50.926;5.330;2022-10-03T00:07:09;18.40;;;9.73;;
19253;SDS011;9761;50.926;5.330;2022-10-03T00:09:51;21.03;;;9.53;;
19253;SDS011;9761;50.926;5.330;2022-10-03T00:12:39;18.80;;;9.57;;
19253;SDS011;9761;50.926;5.330;2022-10-03T00:15:27;19.43;;;8.87;;
19253;SDS011;9761;50.926;5.330;2022-10-03T00:18:02;22.73;;;9.57;;
19253;SDS011;9761;50.926;5.330;2022-10-03T00:20:50;21.33;;;9.30;;
19253;SDS011;9761;50.926;5.330;2022-10-03T00:23:35;17.07;;;9.17;;
19253;SDS011;9761;50.926;5.330;2022-10-03T00:26:12;21.17;;;9.63;;
19253;SDS011;9761;50.926;5.330;2022-10-03T00:29:16;19.80;;;9.03;;
19253;SDS011;9761;50.926;5.330;2022-10-03T00:31:55;17.20;;;9.50;;
19253;SDS011;9761;50.926;5.330;2022-10-03T00:34:38;27.37;;;11.00;;
19253;SDS011;9761;50.926;5.330;2022-10-03T00:37:22;20.17;;;9.93;;
19253;SDS011;9761;50.926;5.330;2022-10-03T00:40:03;26.97;;;11.13;;
19253;SDS011;9761;50.926;5.330;2022-10-03T00:43:06;20.60;;;10.90;;
19253;SDS011;9761;50.926;5.330;2022-10-03T00:48:51;17.80;;;9.83;;
19253;SDS011;9761;50.926;5.330;2022-10-03T00:52:05;19.03;;;9.57;;
19253;SDS011;9761;50.926;5.330;2022-10-03T00:54:51;22.60;;;9.83;;
19253;SDS011;9761;50.926;5.330;2022-10-03T00:57:35;17.77;;;9.93;;
19253;SDS011;9761;50.926;5.330;2022-10-03T01:00:23;21.67;;;10.97;;
19253;SDS011;9761;50.926;5.330;2022-10-03T01:03:10;29.17;;;11.47;;
19253;SDS011;9761;50.926;5.330;2022-10-03T01:05:58;26.40;;;11.57;;
19253;SDS011;9761;50.926;5.330;2022-10-03T01:08:48;25.63;;;10.43;;
19253;SDS011;9761;50.926;5.330;2022-10-03T01:11:40;20.60;;;10.33;;
19253;SDS011;9761;50.926;5.330;2022-10-03T01:14:35;22.43;;;10.70;;
19253;SDS011;9761;50.926;5.330;2022-10-03T01:17:23;20.53;;;10.83;;
19253;SDS011;9761;50.926;5.330;2022-10-03T01:20:07;21.07;;;12.03;;
19253;SDS011;9761;50.926;5.330;2022-10-03T01:22:55;27.73;;;13.50;;
19253;SDS011;9761;50.926;5.330;2022-10-03T01:25:48;22.63;;;12.33;;
19253;SDS011;9761;50.926;5.330;2022-10-03T01:31:33;26.97;;;13.50;;
19253;SDS011;9761;50.926;5.330;2022-10-03T01:34:16;24.07;;;12.60;;
19253;SDS011;9761;50.926;5.330;2022-10-03T01:36:51;26.60;;;14.17;;
19253;SDS011;9761;50.926;5.330;2022-10-03T01:39:31;18.77;;;12.77;;
19253;SDS011;9761;50.926;5.330;2022-10-03T01:42:11;25.10;;;14.40;;
19253;SDS011;9761;50.926;5.330;2022-10-03T01:44:54;21.73;;;12.80;;
19253;SDS011;9761;50.926;5.330;2022-10-03T01:47:36;24.97;;;12.77;;
19253;SDS011;9761;50.926;5.330;2022-10-03T01:50:15;20.10;;;13.00;;
19253;SDS011;9761;50.926;5.330;2022-10-03T01:52:53;21.83;;;12.77;;
19253;SDS011;9761;50.926;5.330;2022-10-03T01:55:29;26.13;;;13.10;;
19253;SDS011;9761;50.926;5.330;2022-10-03T01:58:04;23.93;;;12.80;;
19253;SDS011;9761;50.926;5.330;2022-10-03T02:00:41;26.20;;;13.20;;
19253;SDS011;9761;50.926;5.330;2022-10-03T02:03:19;28.73;;;13.80;;
19253;SDS011;9761;50.926;5.330;2022-10-03T02:05:56;19.20;;;12.47;;
19253;SDS011;9761;50.926;5.330;2022-10-03T02:08:31;21.47;;;13.60;;
19253;SDS011;9761;50.926;5.330;2022-10-03T02:11:21;23.47;;;13.30;;
19253;SDS011;9761;50.926;5.330;2022-10-03T02:14:04;27.30;;;14.40;;
19253;SDS011;9761;50.926;5.330;2022-10-03T02:16:44;23.13;;;13.63;;
19253;SDS011;9761;50.926;5.330;2022-10-03T02:19:26;25.37;;;14.47;;
19253;SDS011;9761;50.926;5.330;2022-10-03T02:21:58;32.67;;;15.23;;
19253;SDS011;9761;50.926;5.330;2022-10-03T02:24:32;28.47;;;14.13;;
19253;SDS011;9761;50.926;5.330;2022-10-03T02:30:11;25.50;;;15.10;;
19253;SDS011;9761;50.926;5.330;2022-10-03T02:32:57;25.77;;;15.53;;
19253;SDS011;9761;50.926;5.330;2022-10-03T02:36:14;27.73;;;14.67;;
19253;SDS011;9761;50.926;5.330;2022-10-03T02:39:13;26.67;;;14.50;;
19253;SDS011;9761;50.926;5.330;2022-10-03T02:51:32;23.20;;;14.33;;
19253;SDS011;9761;50.926;5.330;2022-10-03T02:54:36;19.90;;;13.10;;
19253;SDS011;9761;50.926;5.330;2022-10-03T02:57:41;27.17;;;13.93;;
19253;SDS011;9761;50.926;5.330;2022-10-03T03:00:33;19.57;;;13.63;;
19253;SDS011;9761;50.926;5.330;2022-10-03T03:13:22;21.77;;;14.87;;
19253;SDS011;9761;50.926;5.330;2022-10-03T03:16:37;24.93;;;13.93;;
19253;SDS011;9761;50.926;5.330;2022-10-03T03:19:30;23.30;;;13.80;;
19253;SDS011;9761;50.926;5.330;2022-10-03T03:22:25;22.27;;;14.83;;
19253;SDS011;9761;50.926;5.330;2022-10-03T03:25:20;21.97;;;14.87;;
19253;SDS011;9761;50.926;5.330;2022-10-03T03:28:05;25.60;;;14.53;;
19253;SDS011;9761;50.926;5.330;2022-10-03T03:30:46;19.33;;;14.30;;
19253;SDS011;9761;50.926;5.330;2022-10-03T03:33:22;22.77;;;14.07;;
19253;SDS011;9761;50.926;5.330;2022-10-03T03:36:01;23.77;;;14.97;;
19253;SDS011;9761;50.926;5.330;2022-10-03T03:38:39;30.00;;;15.40;;
19253;SDS011;9761;50.926;5.330;2022-10-03T03:41:27;22.83;;;14.33;;
19253;SDS011;9761;50.926;5.330;2022-10-03T03:44:22;22.57;;;14.70;;
19253;SDS011;9761;50.926;5.330;2022-10-03T03:47:11;24.37;;;15.17;;
19253;SDS011;9761;50.926;5.330;2022-10-03T03:49:55;27.03;;;15.10;;
19253;SDS011;9761;50.926;5.330;2022-10-03T03:52:48;24.33;;;13.80;;
19253;SDS011;9761;50.926;5.330;2022-10-03T03:55:38;28.73;;;15.77;;
19253;SDS011;9761;50.926;5.330;2022-10-03T03:58:24;29.23;;;16.47;;
19253;SDS011;9761;50.926;5.330;2022-10-03T04:01:09;24.77;;;14.20;;
19253;SDS011;9761;50.926;5.330;2022-10-03T04:03:58;20.70;;;13.30;;
19253;SDS011;9761;50.926;5.330;2022-10-03T04:06:40;23.10;;;14.37;;
19253;SDS011;9761;50.926;5.330;2022-10-03T04:09:28;30.00;;;13.53;;
19253;SDS011;9761;50.926;5.330;2022-10-03T04:12:38;26.43;;;12.53;;
19253;SDS011;9761;50.926;5.330;2022-10-03T04:15:42;24.47;;;13.97;;
19253;SDS011;9761;50.926;5.330;2022-10-03T04:18:26;25.63;;;13.33;;
19253;SDS011;9761;50.926;5.330;2022-10-03T04:21:36;25.40;;;13.87;;
19253;SDS011;9761;50.926;5.330;2022-10-03T04:27:33;22.50;;;14.37;;
19253;SDS011;9761;50.926;5.330;2022-10-03T04:30:27;29.97;;;13.57;;
19253;SDS011;9761;50.926;5.330;2022-10-03T04:33:10;24.17;;;13.70;;
19253;SDS011;9761;50.926;5.330;2022-10-03T04:36:08;24.10;;;13.13;;
19253;SDS011;9761;50.926;5.330;2022-10-03T04:38:59;24.90;;;14.03;;
19253;SDS011;9761;50.926;5.330;2022-10-03T04:41:34;24.23;;;13.80;;
19253;SDS011;9761;50.926;5.330;2022-10-03T04:44:09;21.97;;;14.23;;
19253;SDS011;9761;50.926;5.330;2022-10-03T04:46:47;24.27;;;14.00;;
19253;SDS011;9761;50.926;5.330;2022-10-03T04:49:30;26.27;;;14.07;;
19253;SDS011;9761;50.926;5.330;2022-10-03T04:52:12;18.40;;;12.77;;
19253;SDS011;9761;50.926;5.330;2022-10-03T04:54:51;24.40;;;14.07;;
19253;SDS011;9761;50.926;5.330;2022-10-03T04:57:29;27.03;;;12.90;;
19253;SDS011;9761;50.926;5.330;2022-10-03T05:00:13;20.60;;;12.87;;
19253;SDS011;9761;50.926;5.330;2022-10-03T05:02:52;25.80;;;13.57;;
19253;SDS011;9761;50.926;5.330;2022-10-03T05:08:16;19.40;;;12.57;;
19253;SDS011;9761;50.926;5.330;2022-10-03T05:10:56;24.27;;;14.43;;
19253;SDS011;9761;50.926;5.330;2022-10-03T05:13:34;23.43;;;13.70;;
19253;SDS011;9761;50.926;5.330;2022-10-03T05:16:17;22.27;;;12.83;;
19253;SDS011;9761;50.926;5.330;2022-10-03T05:18:52;24.23;;;13.77;;
19253;SDS011;9761;50.926;5.330;2022-10-03T05:21:38;20.53;;;13.17;;
19253;SDS011;9761;50.926;5.330;2022-10-03T05:24:12;22.17;;;12.53;;
19253;SDS011;9761;50.926;5.330;2022-10-03T05:26:46;29.63;;;13.93;;
19253;SDS011;9761;50.926;5.330;2022-10-03T05:29:23;25.73;;;13.83;;
19253;SDS011;9761;50.926;5.330;2022-10-03T05:32:05;24.90;;;13.80;;
19253;SDS011;9761;50.926;5.330;2022-10-03T05:34:51;21.17;;;13.77;;
19253;SDS011;9761;50.926;5.330;2022-10-03T05:40:35;21.13;;;13.90;;
19253;SDS011;9761;50.926;5.330;2022-10-03T05:43:08;25.70;;;15.30;;
19253;SDS011;9761;50.926;5.330;2022-10-03T05:45:57;28.67;;;14.07;;
19253;SDS011;9761;50.926;5.330;2022-10-03T05:48:30;23.43;;;14.07;;
19253;SDS011;9761;50.926;5.330;2022-10-03T05:51:12;24.40;;;15.03;;
19253;SDS011;9761;50.926;5.330;2022-10-03T05:54:10;28.53;;;15.57;;
19253;SDS011;9761;50.926;5.330;2022-10-03T06:00:22;25.60;;;14.73;;
19253;SDS011;9761;50.926;5.330;2022-10-03T06:03:10;22.57;;;14.23;;
19253;SDS011;9761;50.926;5.330;2022-10-03T06:06:02;28.70;;;15.37;;
19253;SDS011;9761;50.926;5.330;2022-10-03T06:08:57;22.10;;;16.10;;
19253;SDS011;9761;50.926;5.330;2022-10-03T06:11:55;23.93;;;15.37;;
19253;SDS011;9761;50.926;5.330;2022-10-03T06:14:32;28.20;;;15.60;;
19253;SDS011;9761;50.926;5.330;2022-10-03T06:17:36;23.67;;;15.17;;
19253;SDS011;9761;50.926;5.330;2022-10-03T06:36:02;20.07;;;13.77;;
19253;SDS011;9761;50.926;5.330;2022-10-03T06:42:07;22.43;;;13.70;;
19253;SDS011;9761;50.926;5.330;2022-10-03T06:45:11;22.07;;;14.20;;
19253;SDS011;9761;50.926;5.330;2022-10-03T06:50:52;22.67;;;14.17;;
19253;SDS011;9761;50.926;5.330;2022-10-03T06:53:47;24.63;;;15.03;;
19253;SDS011;9761;50.926;5.330;2022-10-03T06:59:52;20.10;;;13.87;;
19253;SDS011;9761;50.926;5.330;2022-10-03T07:12:11;16.77;;;12.60;;
19253;SDS011;9761;50.926;5.330;2022-10-03T07:18:20;17.03;;;12.00;;
19253;SDS011;9761;50.926;5.330;2022-10-03T07:21:20;22.10;;;13.13;;
19253;SDS011;9761;50.926;5.330;2022-10-03T07:24:02;17.33;;;11.90;;
19253;SDS011;9761;50.926;5.330;2022-10-03T07:26:58;15.50;;;10.63;;
19253;SDS011;9761;50.926;5.330;2022-10-03T07:29:52;15.60;;;10.30;;
19253;SDS011;9761;50.926;5.330;2022-10-03T07:35:50;16.50;;;10.30;;
19253;SDS011;9761;50.926;5.330;2022-10-03T07:39:01;15.80;;;11.57;;
19253;SDS011;9761;50.926;5.330;2022-10-03T07:41:51;14.93;;;10.20;;
19253;SDS011;9761;50.926;5.330;2022-10-03T07:45:05;15.30;;;10.70;;
19253;SDS011;9761;50.926;5.330;2022-10-03T07:47:54;17.40;;;12.43;;
19253;SDS011;9761;50.926;5.330;2022-10-03T07:50:47;15.87;;;10.57;;
19253;SDS011;9761;50.926;5.330;2022-10-03T08:00:01;17.17;;;10.13;;
19253;SDS011;9761;50.926;5.330;2022-10-03T08:06:19;19.17;;;10.60;;
19253;SDS011;9761;50.926;5.330;2022-10-03T08:08:58;16.57;;;10.93;;
19253;SDS011;9761;50.926;5.330;2022-10-03T08:12:02;18.10;;;10.67;;
19253;SDS011;9761;50.926;5.330;2022-10-03T08:14:55;18.70;;;10.40;;
19253;SDS011;9761;50.926;5.330;2022-10-03T08:17:44;14.50;;;11.07;;
19253;SDS011;9761;50.926;5.330;2022-10-03T08:20:38;14.27;;;9.90;;
19253;SDS011;9761;50.926;5.330;2022-10-03T08:26:28;13.67;;;10.13;;
19253;SDS011;9761;50.926;5.330;2022-10-03T08:29:22;17.10;;;9.87;;
19253;SDS011;9761;50.926;5.330;2022-10-03T08:32:14;17.43;;;10.10;;
19253;SDS011;9761;50.926;5.330;2022-10-03T08:35:06;14.60;;;9.13;;
19253;SDS011;9761;50.926;5.330;2022-10-03T08:41:24;18.63;;;9.27;;
19253;SDS011;9761;50.926;5.330;2022-10-03T08:44:17;18.07;;;9.63;;
19253;SDS011;9761;50.926;5.330;2022-10-03T08:50:33;15.80;;;8.87;;
19253;SDS011;9761;50.926;5.330;2022-10-03T08:53:21;16.73;;;8.73;;
19253;SDS011;9761;50.926;5.330;2022-10-03T08:56:16;21.13;;;9.10;;
19253;SDS011;9761;50.926;5.330;2022-10-03T08:59:04;12.47;;;8.20;;
19253;SDS011;9761;50.926;5.330;2022-10-03T09:02:06;14.40;;;8.27;;
19253;SDS011;9761;50.926;5.330;2022-10-03T09:08:33;16.50;;;8.47;;
19253;SDS011;9761;50.926;5.330;2022-10-03T09:14:44;16.33;;;8.83;;
19253;SDS011;9761;50.926;5.330;2022-10-03T09:17:29;21.27;;;8.30;;
19253;SDS011;9761;50.926;5.330;2022-10-03T09:20:30;16.80;;;8.70;;
19253;SDS011;9761;50.926;5.330;2022-10-03T09:26:44;21.53;;;8.53;;
19253;SDS011;9761;50.926;5.330;2022-10-03T09:29:40;14.40;;;7.13;;
19253;SDS011;9761;50.926;5.330;2022-10-03T09:32:41;14.83;;;9.03;;
19253;SDS011;9761;50.926;5.330;2022-10-03T09:38:49;13.83;;;7.23;;
19253;SDS011;9761;50.926;5.330;2022-10-03T09:51:05;8.87;;;6.17;;
19253;SDS011;9761;50.926;5.330;2022-10-03T09:57:03;22.30;;;7.20;;
19253;SDS011;9761;50.926;5.330;2022-10-03T10:00:13;9.30;;;5.90;;
19253;SDS011;9761;50.926;5.330;2022-10-03T10:06:08;13.60;;;6.07;;
19253;SDS011;9761;50.926;5.330;2022-10-03T10:15:16;10.07;;;4.83;;
19253;SDS011;9761;50.926;5.330;2022-10-03T10:18:27;10.73;;;4.07;;
19253;SDS011;9761;50.926;5.330;2022-10-03T10:21:23;7.70;;;3.50;;
19253;SDS011;9761;50.926;5.330;2022-10-03T10:27:38;12.07;;;4.00;;
19253;SDS011;9761;50.926;5.330;2022-10-03T10:30:43;8.80;;;3.20;;
19253;SDS011;9761;50.926;5.330;2022-10-03T11:03:36;9.03;;;2.60;;
19253;SDS011;9761;50.926;5.330;2022-10-03T11:06:48;8.43;;;2.40;;
19253;SDS011;9761;50.926;5.330;2022-10-03T11:09:46;7.77;;;2.27;;
19253;SDS011;9761;50.926;5.330;2022-10-03T11:16:05;8.13;;;2.30;;
19253;SDS011;9761;50.926;5.330;2022-10-03T11:19:16;9.93;;;2.40;;
19253;SDS011;9761;50.926;5.330;2022-10-03T11:22:17;8.23;;;2.33;;
19253;SDS011;9761;50.926;5.330;2022-10-03T11:25:24;10.27;;;2.47;;
19253;SDS011;9761;50.926;5.330;2022-10-03T11:31:41;6.73;;;2.30;;
19253;SDS011;9761;50.926;5.330;2022-10-03T11:37:45;9.10;;;1.97;;
19253;SDS011;9761;50.926;5.330;2022-10-03T11:40:23;9.77;;;2.50;;
19253;SDS011;9761;50.926;5.330;2022-10-03T11:43:17;7.13;;;2.03;;
19253;SDS011;9761;50.926;5.330;2022-10-03T11:46:18;8.77;;;2.63;;
19253;SDS011;9761;50.926;5.330;2022-10-03T11:48:56;6.13;;;2.00;;
19253;SDS011;9761;50.926;5.330;2022-10-03T11:51:35;9.23;;;2.30;;
19253;SDS011;9761;50.926;5.330;2022-10-03T11:54:14;9.13;;;3.43;;
19253;SDS011;9761;50.926;5.330;2022-10-03T11:56:53;8.20;;;2.27;;
19253;SDS011;9761;50.926;5.330;2022-10-03T11:59:32;4.87;;;2.17;;
19253;SDS011;9761;50.926;5.330;2022-10-03T12:02:17;7.33;;;2.03;;
19253;SDS011;9761;50.926;5.330;2022-10-03T12:05:04;7.23;;;2.10;;
19253;SDS011;9761;50.926;5.330;2022-10-03T12:07:44;6.97;;;2.20;;
19253;SDS011;9761;50.926;5.330;2022-10-03T12:10:42;8.87;;;2.30;;
19253;SDS011;9761;50.926;5.330;2022-10-03T12:13:16;12.23;;;2.53;;
19253;SDS011;9761;50.926;5.330;2022-10-03T12:15:58;6.37;;;2.10;;
19253;SDS011;9761;50.926;5.330;2022-10-03T12:18:47;9.20;;;2.47;;
19253;SDS011;9761;50.926;5.330;2022-10-03T12:21:27;6.83;;;2.00;;
19253;SDS011;9761;50.926;5.330;2022-10-03T12:24:19;6.93;;;1.87;;
19253;SDS011;9761;50.926;5.330;2022-10-03T12:26:59;7.57;;;2.13;;
19253;SDS011;9761;50.926;5.330;2022-10-03T12:29:36;13.53;;;2.20;;
19253;SDS011;9761;50.926;5.330;2022-10-03T12:32:16;5.93;;;2.20;;
19253;SDS011;9761;50.926;5.330;2022-10-03T12:34:58;9.67;;;2.23;;
19253;SDS011;9761;50.926;5.330;2022-10-03T12:37:50;9.13;;;2.33;;
19253;SDS011;9761;50.926;5.330;2022-10-03T12:40:32;5.23;;;2.10;;
19253;SDS011;9761;50.926;5.330;2022-10-03T12:43:08;8.67;;;1.97;;
19253;SDS011;9761;50.926;5.330;2022-10-03T12:45:49;6.87;;;1.83;;
19253;SDS011;9761;50.926;5.330;2022-10-03T12:48:30;5.63;;;2.00;;
19253;SDS011;9761;50.926;5.330;2022-10-03T12:51:08;5.70;;;1.80;;
19253;SDS011;9761;50.926;5.330;2022-10-03T12:53:49;3.57;;;1.90;;
19253;SDS011;9761;50.926;5.330;2022-10-03T12:56:32;5.63;;;1.83;;
19253;SDS011;9761;50.926;5.330;2022-10-03T12:59:17;5.00;;;1.87;;
19253;SDS011;9761;50.926;5.330;2022-10-03T13:02:00;6.70;;;2.20;;
19253;SDS011;9761;50.926;5.330;2022-10-03T13:04:53;5.73;;;1.83;;
19253;SDS011;9761;50.926;5.330;2022-10-03T13:07:48;4.83;;;2.03;;
19253;SDS011;9761;50.926;5.330;2022-10-03T13:10:28;7.03;;;2.13;;
19253;SDS011;9761;50.926;5.330;2022-10-03T13:13:14;4.63;;;1.60;;
19253;SDS011;9761;50.926;5.330;2022-10-03T13:15:59;6.37;;;1.77;;
19253;SDS011;9761;50.926;5.330;2022-10-03T13:18:46;6.63;;;2.07;;
19253;SDS011;9761;50.926;5.330;2022-10-03T13:21:23;5.43;;;1.70;;
19253;SDS011;9761;50.926;5.330;2022-10-03T13:24:08;3.67;;;1.20;;
19253;SDS011;9761;50.926;5.330;2022-10-03T13:26:50;7.20;;;1.70;;
19253;SDS011;9761;50.926;5.330;2022-10-03T13:29:26;7.40;;;1.90;;
19253;SDS011;9761;50.926;5.330;2022-10-03T13:35:02;5.97;;;1.43;;
19253;SDS011;9761;50.926;5.330;2022-10-03T13:38:05;6.20;;;1.80;;
19253;SDS011;9761;50.926;5.330;2022-10-03T13:40:47;6.73;;;1.90;;
19253;SDS011;9761;50.926;5.330;2022-10-03T13:43:23;8.13;;;2.10;;
19253;SDS011;9761;50.926;5.330;2022-10-03T13:46:01;4.60;;;1.90;;
19253;SDS011;9761;50.926;5.330;2022-10-03T13:48:38;9.93;;;1.90;;
19253;SDS011;9761;50.926;5.330;2022-10-03T13:51:17;5.57;;;2.40;;
19253;SDS011;9761;50.926;5.330;2022-10-03T13:53:54;6.17;;;1.97;;
19253;SDS011;9761;50.926;5.330;2022-10-03T13:56:33;6.57;;;1.93;;
19253;SDS011;9761;50.926;5.330;2022-10-03T13:59:16;6.40;;;1.80;;
19253;SDS011;9761;50.926;5.330;2022-10-03T14:01:59;5.63;;;1.90;;
19253;SDS011;9761;50.926;5.330;2022-10-03T14:04:51;9.17;;;2.10;;
19253;SDS011;9761;50.926;5.330;2022-10-03T14:07:37;4.63;;;1.73;;
19253;SDS011;9761;50.926;5.330;2022-10-03T14:10:24;6.00;;;1.87;;
19253;SDS011;9761;50.926;5.330;2022-10-03T14:13:18;3.90;;;1.63;;
19253;SDS011;9761;50.926;5.330;2022-10-03T14:15:54;6.57;;;1.93;;
19253;SDS011;9761;50.926;5.330;2022-10-03T14:21:28;5.13;;;1.80;;
19253;SDS011;9761;50.926;5.330;2022-10-03T14:24:24;7.00;;;2.10;;
19253;SDS011;9761;50.926;5.330;2022-10-03T14:27:07;3.63;;;1.47;;
19253;SDS011;9761;50.926;5.330;2022-10-03T14:29:49;7.00;;;1.90;;
19253;SDS011;9761;50.926;5.330;2022-10-03T14:32:28;5.57;;;1.80;;
19253;SDS011;9761;50.926;5.330;2022-10-03T14:35:04;5.57;;;2.03;;
19253;SDS011;9761;50.926;5.330;2022-10-03T14:37:45;4.83;;;1.53;;
19253;SDS011;9761;50.926;5.330;2022-10-03T14:40:19;6.03;;;1.80;;
19253;SDS011;9761;50.926;5.330;2022-10-03T14:42:56;6.43;;;1.80;;
19253;SDS011;9761;50.926;5.330;2022-10-03T14:45:32;4.77;;;1.70;;
19253;SDS011;9761;50.926;5.330;2022-10-03T14:48:10;6.20;;;1.70;;
19253;SDS011;9761;50.926;5.330;2022-10-03T14:50:42;5.90;;;1.77;;
19253;SDS011;9761;50.926;5.330;2022-10-03T14:53:18;5.10;;;2.13;;
19253;SDS011;9761;50.926;5.330;2022-10-03T14:55:54;6.83;;;1.93;;
19253;SDS011;9761;50.926;5.330;2022-10-03T14:58:27;6.90;;;1.60;;
19253;SDS011;9761;50.926;5.330;2022-10-03T15:01:01;5.63;;;1.70;;
19253;SDS011;9761;50.926;5.330;2022-10-03T15:03:35;5.80;;;1.53;;
19253;SDS011;9761;50.926;5.330;2022-10-03T15:09:21;7.20;;;1.67;;
19253;SDS011;9761;50.926;5.330;2022-10-03T15:11:52;4.87;;;1.67;;
19253;SDS011;9761;50.926;5.330;2022-10-03T15:14:32;5.20;;;1.60;;
19253;SDS011;9761;50.926;5.330;2022-10-03T15:17:14;5.77;;;2.00;;
19253;SDS011;9761;50.926;5.330;2022-10-03T15:19:47;5.10;;;1.87;;
19253;SDS011;9761;50.926;5.330;2022-10-03T15:22:25;4.90;;;2.00;;
19253;SDS011;9761;50.926;5.330;2022-10-03T15:25:02;5.60;;;1.47;;
19253;SDS011;9761;50.926;5.330;2022-10-03T15:27:37;6.77;;;1.80;;
19253;SDS011;9761;50.926;5.330;2022-10-03T15:30:16;3.57;;;1.50;;
19253;SDS011;9761;50.926;5.330;2022-10-03T15:32:46;4.90;;;1.63;;
19253;SDS011;9761;50.926;5.330;2022-10-03T15:35:20;5.23;;;1.70;;
19253;SDS011;9761;50.926;5.330;2022-10-03T15:37:52;7.90;;;1.97;;
19253;SDS011;9761;50.926;5.330;2022-10-03T15:40:24;8.37;;;1.63;;
19253;SDS011;9761;50.926;5.330;2022-10-03T15:43:00;4.37;;;1.60;;
19253;SDS011;9761;50.926;5.330;2022-10-03T15:45:32;3.80;;;1.50;;
19253;SDS011;9761;50.926;5.330;2022-10-03T15:48:08;4.87;;;1.67;;
19253;SDS011;9761;50.926;5.330;2022-10-03T15:50:38;4.43;;;1.93;;
19253;SDS011;9761;50.926;5.330;2022-10-03T15:53:14;7.10;;;1.80;;
19253;SDS011;9761;50.926;5.330;2022-10-03T15:55:49;4.40;;;1.40;;
19253;SDS011;9761;50.926;5.330;2022-10-03T15:58:22;5.33;;;2.10;;
19253;SDS011;9761;50.926;5.330;2022-10-03T16:00:58;5.80;;;1.93;;
19253;SDS011;9761;50.926;5.330;2022-10-03T16:03:34;9.33;;;1.90;;
19253;SDS011;9761;50.926;5.330;2022-10-03T16:06:09;5.40;;;1.60;;
19253;SDS011;9761;50.926;5.330;2022-10-03T16:08:43;5.40;;;2.00;;
19253;SDS011;9761;50.926;5.330;2022-10-03T16:11:23;6.97;;;2.20;;
19253;SDS011;9761;50.926;5.330;2022-10-03T16:14:02;5.07;;;1.90;;
19253;SDS011;9761;50.926;5.330;2022-10-03T16:16:46;5.93;;;2.17;;
19253;SDS011;9761;50.926;5.330;2022-10-03T16:19:22;7.87;;;2.37;;
19253;SDS011;9761;50.926;5.330;2022-10-03T16:21:55;4.73;;;2.50;;
19253;SDS011;9761;50.926;5.330;2022-10-03T16:24:40;7.20;;;2.63;;
19253;SDS011;9761;50.926;5.330;2022-10-03T16:27:26;4.80;;;2.60;;
19253;SDS011;9761;50.926;5.330;2022-10-03T16:30:03;5.43;;;2.50;;
19253;SDS011;9761;50.926;5.330;2022-10-03T16:32:47;6.40;;;2.73;;
19253;SDS011;9761;50.926;5.330;2022-10-03T16:35:27;6.40;;;2.30;;
19253;SDS011;9761;50.926;5.330;2022-10-03T16:38:07;8.97;;;2.70;;
19253;SDS011;9761;50.926;5.330;2022-10-03T16:40:51;6.03;;;3.00;;
19253;SDS011;9761;50.926;5.330;2022-10-03T16:43:22;7.43;;;3.07;;
19253;SDS011;9761;50.926;5.330;2022-10-03T16:45:51;8.30;;;3.17;;
19253;SDS011;9761;50.926;5.330;2022-10-03T16:48:21;11.60;;;2.73;;
19253;SDS011;9761;50.926;5.330;2022-10-03T16:51:12;7.47;;;2.80;;
19253;SDS011;9761;50.926;5.330;2022-10-03T16:53:49;8.77;;;3.43;;
19253;SDS011;9761;50.926;5.330;2022-10-03T16:56:18;7.07;;;3.43;;
19253;SDS011;9761;50.926;5.330;2022-10-03T16:59:03;7.97;;;3.10;;
19253;SDS011;9761;50.926;5.330;2022-10-03T17:01:41;8.23;;;3.70;;
19253;SDS011;9761;50.926;5.330;2022-10-03T17:04:18;9.13;;;3.67;;
19253;SDS011;9761;50.926;5.330;2022-10-03T17:06:50;7.30;;;3.37;;
19253;SDS011;9761;50.926;5.330;2022-10-03T17:09:23;8.57;;;3.83;;
19253;SDS011;9761;50.926;5.330;2022-10-03T17:11:59;6.97;;;3.67;;
19253;SDS011;9761;50.926;5.330;2022-10-03T17:14:35;10.10;;;3.97;;
19253;SDS011;9761;50.926;5.330;2022-10-03T17:17:16;12.97;;;4.27;;
19253;SDS011;9761;50.926;5.330;2022-10-03T17:19:54;8.37;;;3.90;;
19253;SDS011;9761;50.926;5.330;2022-10-03T17:22:29;7.70;;;3.63;;
19253;SDS011;9761;50.926;5.330;2022-10-03T17:25:04;8.23;;;4.30;;
19253;SDS011;9761;50.926;5.330;2022-10-03T17:27:53;9.40;;;4.03;;
19253;SDS011;9761;50.926;5.330;2022-10-03T17:30:31;8.87;;;4.07;;
19253;SDS011;9761;50.926;5.330;2022-10-03T17:33:05;8.87;;;4.27;;
19253;SDS011;9761;50.926;5.330;2022-10-03T17:35:44;10.23;;;4.67;;
19253;SDS011;9761;50.926;5.330;2022-10-03T17:38:26;12.30;;;7.13;;
19253;SDS011;9761;50.926;5.330;2022-10-03T17:41:11;9.20;;;4.23;;
19253;SDS011;9761;50.926;5.330;2022-10-03T17:43:56;10.77;;;4.73;;
19253;SDS011;9761;50.926;5.330;2022-10-03T17:46:36;10.83;;;4.90;;
19253;SDS011;9761;50.926;5.330;2022-10-03T17:49:26;10.83;;;5.80;;
19253;SDS011;9761;50.926;5.330;2022-10-03T17:52:14;14.90;;;8.97;;
19253;SDS011;9761;50.926;5.330;2022-10-03T17:54:45;21.97;;;19.70;;
19253;SDS011;9761;50.926;5.330;2022-10-03T17:57:20;10.77;;;7.23;;
19253;SDS011;9761;50.926;5.330;2022-10-03T17:59:58;13.23;;;5.30;;
19253;SDS011;9761;50.926;5.330;2022-10-03T18:02:33;8.77;;;5.33;;
19253;SDS011;9761;50.926;5.330;2022-10-03T18:05:11;9.17;;;5.50;;
19253;SDS011;9761;50.926;5.330;2022-10-03T18:07:44;12.83;;;6.63;;
19253;SDS011;9761;50.926;5.330;2022-10-03T18:10:15;10.30;;;6.77;;
19253;SDS011;9761;50.926;5.330;2022-10-03T18:12:49;9.93;;;6.90;;
19253;SDS011;9761;50.926;5.330;2022-10-03T18:18:20;12.20;;;5.80;;
19253;SDS011;9761;50.926;5.330;2022-10-03T18:21:11;9.43;;;6.03;;
19253;SDS011;9761;50.926;5.330;2022-10-03T18:23:50;11.83;;;6.23;;
19253;SDS011;9761;50.926;5.330;2022-10-03T18:26:47;11.07;;;7.00;;
19253;SDS011;9761;50.926;5.330;2022-10-03T18:29:28;11.37;;;5.80;;
19253;SDS011;9761;50.926;5.330;2022-10-03T18:32:15;9.13;;;5.70;;
19253;SDS011;9761;50.926;5.330;2022-10-03T18:34:56;8.13;;;5.57;;
19253;SDS011;9761;50.926;5.330;2022-10-03T18:40:29;13.43;;;5.80;;
19253;SDS011;9761;50.926;5.330;2022-10-03T18:43:00;12.30;;;6.57;;
19253;SDS011;9761;50.926;5.330;2022-10-03T18:45:36;9.50;;;6.03;;
19253;SDS011;9761;50.926;5.330;2022-10-03T18:48:13;8.87;;;6.10;;
19253;SDS011;9761;50.926;5.330;2022-10-03T18:50:52;12.70;;;7.97;;
19253;SDS011;9761;50.926;5.330;2022-10-03T18:53:29;14.80;;;8.03;;
19253;SDS011;9761;50.926;5.330;2022-10-03T18:56:06;14.97;;;8.03;;
19253;SDS011;9761;50.926;5.330;2022-10-03T18:58:43;14.07;;;8.07;;
19253;SDS011;9761;50.926;5.330;2022-10-03T19:01:24;14.67;;;8.83;;
19253;SDS011;9761;50.926;5.330;2022-10-03T19:03:58;25.90;;;16.20;;
19253;SDS011;9761;50.926;5.330;2022-10-03T19:06:34;21.97;;;14.03;;
19253;SDS011;9761;50.926;5.330;2022-10-03T19:09:06;22.47;;;14.40;;
19253;SDS011;9761;50.926;5.330;2022-10-03T19:11:48;23.70;;;13.90;;
19253;SDS011;9761;50.926;5.330;2022-10-03T19:14:26;19.30;;;12.53;;
19253;SDS011;9761;50.926;5.330;2022-10-03T19:19:48;17.50;;;10.60;;
19253;SDS011;9761;50.926;5.330;2022-10-03T19:22:23;18.23;;;9.50;;
19253;SDS011;9761;50.926;5.330;2022-10-03T19:24:53;16.83;;;9.93;;
19253;SDS011;9761;50.926;5.330;2022-10-03T19:27:41;21.20;;;9.90;;
19253;SDS011;9761;50.926;5.330;2022-10-03T19:30:16;13.30;;;8.53;;
19253;SDS011;9761;50.926;5.330;2022-10-03T19:32:48;12.87;;;8.73;;
19253;SDS011;9761;50.926;5.330;2022-10-03T19:35:20;15.07;;;9.60;;
19253;SDS011;9761;50.926;5.330;2022-10-03T19:37:51;13.27;;;9.17;;
19253;SDS011;9761;50.926;5.330;2022-10-03T19:40:29;18.27;;;10.17;;
19253;SDS011;9761;50.926;5.330;2022-10-03T19:43:22;17.70;;;10.33;;
19253;SDS011;9761;50.926;5.330;2022-10-03T19:46:05;16.43;;;10.23;;
19253;SDS011;9761;50.926;5.330;2022-10-03T19:48:52;14.60;;;11.13;;